地図

経路データ

SID SEASON NUMBER BASIN SUBBASIN NAME ISO_TIME NATURE LAT LON WMO_WIND WMO_PRES WMO_AGENCY TRACK_TYPE DIST2LAND LANDFALL IFLAG USA_AGENCY USA_ATCF_ID USA_LAT USA_LON USA_RECORD USA_STATUS USA_WIND USA_PRES USA_SSHS USA_R34_NE USA_R34_SE USA_R34_SW USA_R34_NW USA_R50_NE USA_R50_SE USA_R50_SW USA_R50_NW USA_R64_NE USA_R64_SE USA_R64_SW USA_R64_NW USA_POCI USA_ROCI USA_RMW USA_EYE TOKYO_LAT TOKYO_LON TOKYO_GRADE TOKYO_WIND TOKYO_PRES TOKYO_R50_DIR TOKYO_R50_LONG TOKYO_R50_SHORT TOKYO_R30_DIR TOKYO_R30_LONG TOKYO_R30_SHORT TOKYO_LAND CMA_LAT CMA_LON CMA_CAT CMA_WIND CMA_PRES HKO_LAT HKO_LON HKO_CAT HKO_WIND HKO_PRES NEWDELHI_LAT NEWDELHI_LON NEWDELHI_GRADE NEWDELHI_WIND NEWDELHI_PRES NEWDELHI_CI NEWDELHI_DP NEWDELHI_POCI REUNION_LAT REUNION_LON REUNION_TYPE REUNION_WIND REUNION_PRES REUNION_TNUM REUNION_CI REUNION_RMW REUNION_R34_NE REUNION_R34_SE REUNION_R34_SW REUNION_R34_NW REUNION_R50_NE REUNION_R50_SE REUNION_R50_SW REUNION_R50_NW REUNION_R64_NE REUNION_R64_SE REUNION_R64_SW REUNION_R64_NW BOM_LAT BOM_LON BOM_TYPE BOM_WIND BOM_PRES BOM_TNUM BOM_CI BOM_RMW BOM_R34_NE BOM_R34_SE BOM_R34_SW BOM_R34_NW BOM_R50_NE BOM_R50_SE BOM_R50_SW BOM_R50_NW BOM_R64_NE BOM_R64_SE BOM_R64_SW BOM_R64_NW BOM_ROCI BOM_POCI BOM_EYE BOM_POS_METHOD BOM_PRES_METHOD NADI_LAT NADI_LON NADI_CAT NADI_WIND NADI_PRES WELLINGTON_LAT WELLINGTON_LON WELLINGTON_WIND WELLINGTON_PRES DS824_LAT DS824_LON DS824_STAGE DS824_WIND DS824_PRES TD9636_LAT TD9636_LON TD9636_STAGE TD9636_WIND TD9636_PRES TD9635_LAT TD9635_LON TD9635_WIND TD9635_PRES TD9635_ROCI NEUMANN_LAT NEUMANN_LON NEUMANN_CLASS NEUMANN_WIND NEUMANN_PRES MLC_LAT MLC_LON MLC_CLASS MLC_WIND MLC_PRES USA_GUST BOM_GUST BOM_GUST_PER REUNION_GUST REUNION_GUST_PER USA_SEAHGT USA_SEARAD_NE USA_SEARAD_SE USA_SEARAD_SW USA_SEARAD_NW STORM_SPEED STORM_DIR
1944223N10135 1944 46 WP MM NOT_NAMED 1944-08-09 12:00:00 NR 9.90000 134.800 main 934 912 __________O___ -1 9.90000 134.800 4 9 321
1944223N10135 1944 46 WP MM NOT_NAMED 1944-08-09 15:00:00 NR 10.2297 134.528 main 912 898 __________P___ -1 10.2297 134.528 4 9 321
1944223N10135 1944 46 WP MM NOT_NAMED 1944-08-09 18:00:00 NR 10.5675 134.245 main 889 873 __________P___ -1 10.5675 134.245 4 9 320
1944223N10135 1944 46 WP MM NOT_NAMED 1944-08-09 21:00:00 NR 10.9215 133.939 main 864 843 __________P___ -1 10.9215 133.939 4 10 319
1944223N10135 1944 46 WP MM NOT_NAMED 1944-08-10 00:00:00 NR 11.3000 133.600 main 843 811 __________O___ -1 11.3000 133.600 4 11 318
1944223N10135 1944 46 WP MM NOT_NAMED 1944-08-10 03:00:00 NR 11.7092 133.221 main 811 772 __________P___ -1 11.7092 133.221 4 12 318
1944223N10135 1944 46 WP MM NOT_NAMED 1944-08-10 06:00:00 NR 12.1477 132.815 main 772 740 __________P___ -1 12.1477 132.815 4 12 318
1944223N10135 1944 46 WP MM NOT_NAMED 1944-08-10 09:00:00 NR 12.6123 132.402 main 740 710 __________P___ -1 12.6123 132.402 4 12 320
1944223N10135 1944 46 WP MM NOT_NAMED 1944-08-10 12:00:00 NR 13.1000 132.000 main 712 688 __________O___ -1 13.1000 132.000 4 12 323
1944223N10135 1944 46 WP MM NOT_NAMED 1944-08-10 15:00:00 NR 13.6072 131.639 main 679 660 __________P___ -1 13.6072 131.639 4 12 326
1944223N10135 1944 46 WP MM NOT_NAMED 1944-08-10 18:00:00 NR 14.1346 131.292 main 663 648 __________P___ -1 14.1346 131.292 4 13 328
1944223N10135 1944 46 WP MM NOT_NAMED 1944-08-10 21:00:00 NR 14.6697 130.949 main 647 639 __________P___ -1 14.6697 130.949 4 13 328
1944223N10135 1944 46 WP MM NOT_NAMED 1944-08-11 00:00:00 NR 15.2000 130.600 main 645 639 __________O___ -1 15.2000 130.600 4 12 327
1944223N10135 1944 46 WP MM NOT_NAMED 1944-08-11 03:00:00 NR 15.7069 130.240 main 641 639 __________P___ -1 15.7069 130.240 4 12 325
1944223N10135 1944 46 WP MM NOT_NAMED 1944-08-11 06:00:00 NR 16.2071 129.872 main 644 625 __________P___ -1 16.2071 129.872 4 12 324
1944223N10135 1944 46 WP MM NOT_NAMED 1944-08-11 09:00:00 NR 16.7038 129.493 main 630 618 __________P___ -1 16.7038 129.493 4 12 323
1944223N10135 1944 46 WP MM NOT_NAMED 1944-08-11 12:00:00 NR 17.2000 129.100 main 624 619 __________O___ -1 17.2000 129.100 4 13 323
1944223N10135 1944 46 WP MM NOT_NAMED 1944-08-11 15:00:00 NR 17.7037 128.705 main 626 626 __________P___ -1 17.7037 128.705 4 13 323
1944223N10135 1944 46 WP MM NOT_NAMED 1944-08-11 18:00:00 NR 18.2069 128.294 main 629 590 __________P___ -1 18.2069 128.294 4 13 321
1944223N10135 1944 46 WP MM NOT_NAMED 1944-08-11 21:00:00 NR 18.7067 127.861 main 591 544 __________P___ -1 18.7067 127.861 4 13 320
1944223N10135 1944 46 WP MM NOT_NAMED 1944-08-12 00:00:00 NR 19.2000 127.400 main 544 504 __________O___ -1 19.2000 127.400 4 13 318
1944223N10135 1944 46 WP MM NOT_NAMED 1944-08-12 03:00:00 NR 19.6982 126.908 main 504 470 __________P___ -1 19.6982 126.908 4 14 316
1944223N10135 1944 46 WP MM NOT_NAMED 1944-08-12 06:00:00 NR 20.1872 126.387 main 475 450 __________P___ -1 20.1872 126.387 4 14 314
1944223N10135 1944 46 WP MM NOT_NAMED 1944-08-12 09:00:00 NR 20.6575 125.848 main 447 435 __________P___ -1 20.6575 125.848 4 14 312
1944223N10135 1944 46 WP MM NOT_NAMED 1944-08-12 12:00:00 NR 21.1000 125.300 main 435 392 __________O___ -1 21.1000 125.300 4 13 310
1944223N10135 1944 46 WP MM NOT_NAMED 1944-08-12 15:00:00 NR 21.5075 124.748 main 383 317 __________P___ -1 21.5075 124.748 4 13 307
1944223N10135 1944 46 WP MM NOT_NAMED 1944-08-12 18:00:00 NR 21.8872 124.191 main 317 256 __________P___ -1 21.8872 124.191 4 13 306
1944223N10135 1944 46 WP MM NOT_NAMED 1944-08-12 21:00:00 NR 22.2482 123.639 main 247 182 __________P___ -1 22.2482 123.639 4 12 305
1944223N10135 1944 46 WP MM NOT_NAMED 1944-08-13 00:00:00 NR 22.6000 123.100 main 182 124 __________O___ -1 22.6000 123.100 4 12 306
1944223N10135 1944 46 WP MM NOT_NAMED 1944-08-13 03:00:00 NR 22.9647 122.581 main 123 71 __________P___ -1 22.9647 122.581 4 12 307
1944223N10135 1944 46 WP MM NOT_NAMED 1944-08-13 06:00:00 NR 23.3217 122.077 main 71 15 __________P___ -1 23.3217 122.077 4 12 308
1944223N10135 1944 46 WP MM NOT_NAMED 1944-08-13 09:00:00 NR 23.6679 121.584 main 10 0 __________P___ -1 23.6679 121.584 4 11 307
1944223N10135 1944 46 WP MM NOT_NAMED 1944-08-13 12:00:00 NR 24.0000 121.100 main 0 0 __________O___ -1 24.0000 121.100 4 11 307
1944223N10135 1944 46 WP MM NOT_NAMED 1944-08-13 15:00:00 NR 24.3048 120.652 main 0 0 __________P___ -1 24.3048 120.652 4 10 306
1944223N10135 1944 46 WP MM NOT_NAMED 1944-08-13 18:00:00 NR 24.5978 120.207 main 46 46 __________P___ -1 24.5978 120.207 4 10 305
1944223N10135 1944 46 WP MM NOT_NAMED 1944-08-13 21:00:00 NR 24.8920 119.733 main 45 0 __________P___ -1 24.8920 119.733 4 11 303
1944223N10135 1944 46 WP MM NOT_NAMED 1944-08-14 00:00:00 NR 25.2000 119.200 main 10 0 __________O___ -1 25.2000 119.200 4 12 301
1944223N10135 1944 46 WP MM NOT_NAMED 1944-08-14 03:00:00 NR 25.5360 118.565 main 0 0 __________P___ -1 25.5360 118.565 4 14 300
1944223N10135 1944 46 WP MM NOT_NAMED 1944-08-14 06:00:00 NR 25.8854 117.867 main 0 0 __________P___ -1 25.8854 117.867 4 15 299
1944223N10135 1944 46 WP MM NOT_NAMED 1944-08-14 09:00:00 NR 26.2420 117.136 main 0 0 __________P___ -1 26.2420 117.136 4 15 299
1944223N10135 1944 46 WP MM NOT_NAMED 1944-08-14 12:00:00 NR 26.6000 116.400 main 0 0 __________O___ -1 26.6000 116.400 4 15 299
1944223N10135 1944 46 WP MM NOT_NAMED 1944-08-14 15:00:00 NR 26.9551 115.682 main 0 0 __________P___ -1 26.9551 115.682 4 15 299
1944223N10135 1944 46 WP MM NOT_NAMED 1944-08-14 18:00:00 NR 27.3067 114.980 main 0 0 __________P___ -1 27.3067 114.980 4 14 299
1944223N10135 1944 46 WP MM NOT_NAMED 1944-08-14 21:00:00 NR 27.6550 114.289 main 0 0 __________P___ -1 27.6550 114.289 4 14 300
1944223N10135 1944 46 WP MM NOT_NAMED 1944-08-15 00:00:00 NR 28.0000 113.600 main 0 __________O___ -1 28.0000 113.600 4 14 300

デジタル台風データ・検索

IBTrACS Databaseについて

本データベースは、米国NOAAが公開する1842年以降の世界の熱帯低気圧のベストトラックデータアーカイブInternational Best Track Archive for Climate Stewardship (IBTrACS)を、ウェブで閲覧しやすい形式に変換したものです。

最終更新日:2021-11-26